sensor_id;sensor_type;location;lat;lon;timestamp;pressure;altitude;pressure_sealevel;temperature;humidity
19236;BME280;9752;54.270;12.470;2024-01-15T00:01:42;99447.22;;;0.75;100.00
19236;BME280;9752;54.270;12.470;2024-01-15T00:06:45;99439.47;;;0.74;100.00
19236;BME280;9752;54.270;12.470;2024-01-15T00:11:47;99415.69;;;0.63;100.00
19236;BME280;9752;54.270;12.470;2024-01-15T00:16:48;99402.72;;;0.72;100.00
19236;BME280;9752;54.270;12.470;2024-01-15T00:21:53;99392.09;;;0.77;100.00
19236;BME280;9752;54.270;12.470;2024-01-15T00:26:54;99375.56;;;0.72;100.00
19236;BME280;9752;54.270;12.470;2024-01-15T00:31:56;99363.66;;;0.61;100.00
19236;BME280;9752;54.270;12.470;2024-01-15T00:36:59;99357.72;;;0.84;100.00
19236;BME280;9752;54.270;12.470;2024-01-15T00:42:00;99345.84;;;0.85;100.00
19236;BME280;9752;54.270;12.470;2024-01-15T00:47:02;99318.13;;;1.01;100.00
19236;BME280;9752;54.270;12.470;2024-01-15T00:52:05;99300.59;;;1.06;100.00
19236;BME280;9752;54.270;12.470;2024-01-15T00:57:07;99275.63;;;1.13;100.00
19236;BME280;9752;54.270;12.470;2024-01-15T01:02:09;99254.63;;;1.17;100.00
19236;BME280;9752;54.270;12.470;2024-01-15T01:07:12;99246.63;;;1.25;100.00
19236;BME280;9752;54.270;12.470;2024-01-15T01:12:13;99221.00;;;1.35;100.00
19236;BME280;9752;54.270;12.470;2024-01-15T01:17:15;99180.88;;;1.34;100.00
19236;BME280;9752;54.270;12.470;2024-01-15T01:22:18;99167.13;;;1.32;100.00
19236;BME280;9752;54.270;12.470;2024-01-15T01:27:20;99151.81;;;1.20;100.00
19236;BME280;9752;54.270;12.470;2024-01-15T01:32:21;99138.72;;;1.15;100.00
19236;BME280;9752;54.270;12.470;2024-01-15T01:37:24;99132.03;;;1.29;100.00
19236;BME280;9752;54.270;12.470;2024-01-15T01:42:26;99109.13;;;1.31;100.00
19236;BME280;9752;54.270;12.470;2024-01-15T01:47:28;99098.09;;;1.19;100.00
19236;BME280;9752;54.270;12.470;2024-01-15T01:52:31;99084.84;;;1.24;100.00
19236;BME280;9752;54.270;12.470;2024-01-15T01:57:34;99056.13;;;1.40;100.00
19236;BME280;9752;54.270;12.470;2024-01-15T02:02:36;99053.38;;;1.37;100.00
19236;BME280;9752;54.270;12.470;2024-01-15T02:07:39;99033.88;;;1.26;100.00
19236;BME280;9752;54.270;12.470;2024-01-15T02:12:42;99028.56;;;1.23;100.00
19236;BME280;9752;54.270;12.470;2024-01-15T02:18:05;99019.97;;;1.09;100.00
19236;BME280;9752;54.270;12.470;2024-01-15T02:23:10;99040.59;;;1.12;100.00
19236;BME280;9752;54.270;12.470;2024-01-15T02:28:14;99039.97;;;1.28;100.00
19236;BME280;9752;54.270;12.470;2024-01-15T02:33:16;99043.22;;;1.50;100.00
19236;BME280;9752;54.270;12.470;2024-01-15T02:38:19;99051.09;;;1.67;100.00
19236;BME280;9752;54.270;12.470;2024-01-15T02:43:21;99010.06;;;1.77;100.00
19236;BME280;9752;54.270;12.470;2024-01-15T02:48:22;99061.38;;;1.80;100.00
19236;BME280;9752;54.270;12.470;2024-01-15T02:53:25;99013.13;;;1.85;100.00
19236;BME280;9752;54.270;12.470;2024-01-15T02:58:27;99002.59;;;1.93;100.00
19236;BME280;9752;54.270;12.470;2024-01-15T03:03:29;98986.47;;;2.08;100.00
19236;BME280;9752;54.270;12.470;2024-01-15T03:08:32;98974.97;;;2.14;100.00
19236;BME280;9752;54.270;12.470;2024-01-15T03:13:36;98976.03;;;2.18;100.00
19236;BME280;9752;54.270;12.470;2024-01-15T03:18:37;98947.00;;;2.31;100.00
19236;BME280;9752;54.270;12.470;2024-01-15T03:23:40;98927.25;;;2.28;100.00
19236;BME280;9752;54.270;12.470;2024-01-15T03:28:42;98914.84;;;2.21;100.00
19236;BME280;9752;54.270;12.470;2024-01-15T03:33:43;98835.56;;;2.21;100.00
19236;BME280;9752;54.270;12.470;2024-01-15T03:38:46;98841.16;;;2.29;100.00
19236;BME280;9752;54.270;12.470;2024-01-15T03:43:48;98812.50;;;2.34;100.00
19236;BME280;9752;54.270;12.470;2024-01-15T03:48:50;98815.31;;;2.24;100.00
19236;BME280;9752;54.270;12.470;2024-01-15T03:53:53;98805.47;;;1.75;100.00
19236;BME280;9752;54.270;12.470;2024-01-15T03:58:54;98807.34;;;1.65;100.00
19236;BME280;9752;54.270;12.470;2024-01-15T04:03:56;98783.63;;;1.94;100.00
19236;BME280;9752;54.270;12.470;2024-01-15T04:08:59;98804.13;;;2.09;100.00
19236;BME280;9752;54.270;12.470;2024-01-15T04:14:01;98778.94;;;2.15;100.00
19236;BME280;9752;54.270;12.470;2024-01-15T04:19:02;98768.03;;;2.04;100.00
19236;BME280;9752;54.270;12.470;2024-01-15T04:24:06;98767.03;;;2.15;100.00
19236;BME280;9752;54.270;12.470;2024-01-15T04:29:07;98769.56;;;2.15;100.00
19236;BME280;9752;54.270;12.470;2024-01-15T04:34:09;98751.81;;;2.04;100.00
19236;BME280;9752;54.270;12.470;2024-01-15T04:39:12;98759.81;;;1.95;100.00
19236;BME280;9752;54.270;12.470;2024-01-15T04:44:14;98777.19;;;2.01;100.00
19236;BME280;9752;54.270;12.470;2024-01-15T04:49:16;98760.47;;;2.06;100.00
19236;BME280;9752;54.270;12.470;2024-01-15T04:54:19;98766.34;;;2.05;100.00
19236;BME280;9752;54.270;12.470;2024-01-15T04:59:20;98772.59;;;1.95;100.00
19236;BME280;9752;54.270;12.470;2024-01-15T05:04:22;98810.97;;;1.82;100.00
19236;BME280;9752;54.270;12.470;2024-01-15T05:09:26;98766.34;;;1.90;100.00
19236;BME280;9752;54.270;12.470;2024-01-15T05:14:29;98778.50;;;1.94;100.00
19236;BME280;9752;54.270;12.470;2024-01-15T05:19:30;98772.88;;;2.00;100.00
19236;BME280;9752;54.270;12.470;2024-01-15T05:24:33;98798.47;;;2.00;100.00
19236;BME280;9752;54.270;12.470;2024-01-15T05:29:35;98785.94;;;2.04;100.00
19236;BME280;9752;54.270;12.470;2024-01-15T05:34:36;98770.75;;;1.92;100.00
19236;BME280;9752;54.270;12.470;2024-01-15T05:39:39;98837.59;;;1.99;100.00
19236;BME280;9752;54.270;12.470;2024-01-15T05:44:41;98807.59;;;1.96;100.00
19236;BME280;9752;54.270;12.470;2024-01-15T05:49:43;98779.25;;;1.65;100.00
19236;BME280;9752;54.270;12.470;2024-01-15T05:54:46;98807.94;;;1.61;100.00
19236;BME280;9752;54.270;12.470;2024-01-15T05:59:47;98801.63;;;1.69;100.00
19236;BME280;9752;54.270;12.470;2024-01-15T06:04:49;98814.44;;;1.82;100.00
19236;BME280;9752;54.270;12.470;2024-01-15T06:09:52;98813.75;;;1.71;100.00
19236;BME280;9752;54.270;12.470;2024-01-15T06:14:54;98817.28;;;1.60;100.00
19236;BME280;9752;54.270;12.470;2024-01-15T06:19:55;98822.63;;;1.63;100.00
19236;BME280;9752;54.270;12.470;2024-01-15T06:24:58;98814.41;;;1.69;100.00
19236;BME280;9752;54.270;12.470;2024-01-15T06:30:00;98825.66;;;1.71;100.00
19236;BME280;9752;54.270;12.470;2024-01-15T06:35:02;98844.09;;;1.67;100.00
19236;BME280;9752;54.270;12.470;2024-01-15T06:40:06;98844.44;;;1.45;100.00
19236;BME280;9752;54.270;12.470;2024-01-15T06:45:09;98860.06;;;0.59;100.00
19236;BME280;9752;54.270;12.470;2024-01-15T06:50:10;98889.06;;;0.73;100.00
19236;BME280;9752;54.270;12.470;2024-01-15T06:55:13;98874.66;;;0.87;100.00
19236;BME280;9752;54.270;12.470;2024-01-15T07:00:16;98926.13;;;0.93;100.00
19236;BME280;9752;54.270;12.470;2024-01-15T07:05:20;98886.72;;;0.76;100.00
19236;BME280;9752;54.270;12.470;2024-01-15T07:10:23;98940.56;;;0.67;100.00
19236;BME280;9752;54.270;12.470;2024-01-15T07:15:25;98913.25;;;0.66;100.00
19236;BME280;9752;54.270;12.470;2024-01-15T07:20:26;98919.34;;;0.68;100.00
19236;BME280;9752;54.270;12.470;2024-01-15T07:25:29;98971.69;;;0.75;100.00
19236;BME280;9752;54.270;12.470;2024-01-15T07:30:31;98940.66;;;0.69;100.00
19236;BME280;9752;54.270;12.470;2024-01-15T07:35:32;98935.78;;;0.60;100.00
19236;BME280;9752;54.270;12.470;2024-01-15T07:40:35;98946.69;;;0.57;100.00
19236;BME280;9752;54.270;12.470;2024-01-15T07:45:37;98959.97;;;0.65;100.00
19236;BME280;9752;54.270;12.470;2024-01-15T07:50:39;98973.31;;;0.61;100.00
19236;BME280;9752;54.270;12.470;2024-01-15T07:55:42;98974.22;;;0.50;100.00
19236;BME280;9752;54.270;12.470;2024-01-15T08:00:43;98975.75;;;0.60;100.00
19236;BME280;9752;54.270;12.470;2024-01-15T08:05:45;98988.72;;;0.63;100.00
19236;BME280;9752;54.270;12.470;2024-01-15T08:10:48;99022.34;;;0.57;100.00
19236;BME280;9752;54.270;12.470;2024-01-15T08:15:50;99020.78;;;0.47;100.00
19236;BME280;9752;54.270;12.470;2024-01-15T08:20:51;99021.88;;;0.51;100.00
19236;BME280;9752;54.270;12.470;2024-01-15T08:25:55;99020.31;;;0.53;100.00
19236;BME280;9752;54.270;12.470;2024-01-15T08:30:57;99039.75;;;0.39;100.00
19236;BME280;9752;54.270;12.470;2024-01-15T08:35:58;99061.38;;;0.44;100.00
19236;BME280;9752;54.270;12.470;2024-01-15T08:41:01;99026.13;;;0.38;100.00
19236;BME280;9752;54.270;12.470;2024-01-15T08:46:03;99047.41;;;0.27;100.00
19236;BME280;9752;54.270;12.470;2024-01-15T08:51:05;99043.19;;;0.28;100.00
19236;BME280;9752;54.270;12.470;2024-01-15T08:56:09;99064.84;;;0.21;100.00
19236;BME280;9752;54.270;12.470;2024-01-15T09:01:11;99068.03;;;0.18;100.00
19236;BME280;9752;54.270;12.470;2024-01-15T09:06:13;99063.59;;;0.16;100.00
19236;BME280;9752;54.270;12.470;2024-01-15T09:11:16;99098.50;;;0.17;100.00
19236;BME280;9752;54.270;12.470;2024-01-15T09:16:17;99099.59;;;0.09;100.00
19236;BME280;9752;54.270;12.470;2024-01-15T09:21:20;99169.22;;;0.08;100.00
19236;BME280;9752;54.270;12.470;2024-01-15T09:26:22;99118.75;;;0.04;100.00
19236;BME280;9752;54.270;12.470;2024-01-15T09:31:24;99131.19;;;-0.01;100.00
19236;BME280;9752;54.270;12.470;2024-01-15T09:36:27;99141.34;;;-0.13;100.00
19236;BME280;9752;54.270;12.470;2024-01-15T09:41:30;99142.84;;;-0.27;100.00
19236;BME280;9752;54.270;12.470;2024-01-15T09:46:32;99159.91;;;-0.26;100.00
19236;BME280;9752;54.270;12.470;2024-01-15T09:51:35;99146.59;;;-0.33;100.00
19236;BME280;9752;54.270;12.470;2024-01-15T09:56:39;99199.91;;;-0.47;100.00
19236;BME280;9752;54.270;12.470;2024-01-15T10:01:40;99188.72;;;-0.49;100.00
19236;BME280;9752;54.270;12.470;2024-01-15T10:06:45;99200.34;;;-0.30;100.00
19236;BME280;9752;54.270;12.470;2024-01-15T10:11:49;99188.19;;;-0.23;100.00
19236;BME280;9752;54.270;12.470;2024-01-15T10:16:51;99205.94;;;-0.34;100.00
19236;BME280;9752;54.270;12.470;2024-01-15T10:21:52;99204.72;;;-0.40;100.00
19236;BME280;9752;54.270;12.470;2024-01-15T10:27:04;99197.28;;;-0.36;100.00
19236;BME280;9752;54.270;12.470;2024-01-15T10:32:07;99206.47;;;-0.38;100.00
19236;BME280;9752;54.270;12.470;2024-01-15T10:37:09;99235.75;;;-0.33;100.00
19236;BME280;9752;54.270;12.470;2024-01-15T10:42:12;99241.56;;;-0.24;100.00
19236;BME280;9752;54.270;12.470;2024-01-15T10:47:14;99235.81;;;-0.44;100.00
19236;BME280;9752;54.270;12.470;2024-01-15T10:52:16;99241.78;;;-0.43;100.00
19236;BME280;9752;54.270;12.470;2024-01-15T10:57:20;99260.69;;;-0.29;100.00
19236;BME280;9752;54.270;12.470;2024-01-15T11:02:23;99251.56;;;-0.37;100.00
19236;BME280;9752;54.270;12.470;2024-01-15T11:07:26;99284.03;;;-0.35;100.00
19236;BME280;9752;54.270;12.470;2024-01-15T11:12:29;99282.69;;;-0.42;100.00
19236;BME280;9752;54.270;12.470;2024-01-15T11:17:59;99289.50;;;-0.30;100.00
19236;BME280;9752;54.270;12.470;2024-01-15T11:23:03;99296.28;;;-0.19;100.00
19236;BME280;9752;54.270;12.470;2024-01-15T11:28:06;99304.84;;;-0.18;100.00
19236;BME280;9752;54.270;12.470;2024-01-15T11:33:32;99307.44;;;-0.29;100.00
19236;BME280;9752;54.270;12.470;2024-01-15T11:38:33;99304.34;;;0.08;100.00
19236;BME280;9752;54.270;12.470;2024-01-15T11:43:36;99305.47;;;-0.21;100.00
19236;BME280;9752;54.270;12.470;2024-01-15T11:48:43;99326.66;;;-0.22;100.00
19236;BME280;9752;54.270;12.470;2024-01-15T11:53:48;99332.75;;;-0.20;100.00
19236;BME280;9752;54.270;12.470;2024-01-15T11:58:54;99333.72;;;-0.40;100.00
19236;BME280;9752;54.270;12.470;2024-01-15T12:03:57;99339.59;;;-0.41;100.00
19236;BME280;9752;54.270;12.470;2024-01-15T12:09:06;99343.00;;;-0.30;100.00
19236;BME280;9752;54.270;12.470;2024-01-15T12:14:09;99349.41;;;-0.13;100.00
19236;BME280;9752;54.270;12.470;2024-01-15T12:19:11;99361.22;;;-0.04;100.00
19236;BME280;9752;54.270;12.470;2024-01-15T12:24:12;99367.88;;;-0.06;100.00
19236;BME280;9752;54.270;12.470;2024-01-15T12:29:17;99380.47;;;-0.40;100.00
19236;BME280;9752;54.270;12.470;2024-01-15T12:34:19;99389.28;;;-0.14;100.00
19236;BME280;9752;54.270;12.470;2024-01-15T12:39:21;99422.50;;;-0.45;100.00
19236;BME280;9752;54.270;12.470;2024-01-15T12:44:24;99403.53;;;-0.48;100.00
19236;BME280;9752;54.270;12.470;2024-01-15T12:49:26;99407.75;;;-0.49;100.00
19236;BME280;9752;54.270;12.470;2024-01-15T12:54:27;99432.81;;;-0.53;100.00
19236;BME280;9752;54.270;12.470;2024-01-15T12:59:30;99423.16;;;-0.57;100.00
19236;BME280;9752;54.270;12.470;2024-01-15T13:04:32;99439.47;;;-0.55;100.00
19236;BME280;9752;54.270;12.470;2024-01-15T13:09:34;99437.81;;;-0.65;100.00
19236;BME280;9752;54.270;12.470;2024-01-15T13:14:38;99461.25;;;-0.69;100.00
19236;BME280;9752;54.270;12.470;2024-01-15T13:19:41;99461.50;;;-0.76;100.00
19236;BME280;9752;54.270;12.470;2024-01-15T13:24:42;99474.75;;;-0.91;100.00
19236;BME280;9752;54.270;12.470;2024-01-15T13:29:45;99475.09;;;-0.76;100.00
19236;BME280;9752;54.270;12.470;2024-01-15T13:34:47;99479.19;;;-0.88;100.00
19236;BME280;9752;54.270;12.470;2024-01-15T13:39:49;99492.66;;;-0.89;100.00
19236;BME280;9752;54.270;12.470;2024-01-15T13:44:53;99505.56;;;-0.77;100.00
19236;BME280;9752;54.270;12.470;2024-01-15T13:49:55;99511.41;;;-0.79;100.00
19236;BME280;9752;54.270;12.470;2024-01-15T13:54:57;99524.00;;;-0.80;100.00
19236;BME280;9752;54.270;12.470;2024-01-15T14:00:00;99527.19;;;-0.83;100.00
19236;BME280;9752;54.270;12.470;2024-01-15T14:05:01;99534.53;;;-0.96;100.00
19236;BME280;9752;54.270;12.470;2024-01-15T14:10:04;99537.19;;;-1.05;100.00
19236;BME280;9752;54.270;12.470;2024-01-15T14:15:08;99550.19;;;-1.02;100.00
19236;BME280;9752;54.270;12.470;2024-01-15T14:20:10;99560.97;;;-1.14;100.00
19236;BME280;9752;54.270;12.470;2024-01-15T14:25:11;99561.38;;;-1.10;100.00
19236;BME280;9752;54.270;12.470;2024-01-15T14:30:16;99566.09;;;-1.04;100.00
19236;BME280;9752;54.270;12.470;2024-01-15T14:35:18;99586.31;;;-1.06;100.00
19236;BME280;9752;54.270;12.470;2024-01-15T14:40:19;99586.31;;;-1.06;100.00
19236;BME280;9752;54.270;12.470;2024-01-15T14:45:22;99592.94;;;-1.08;100.00
19236;BME280;9752;54.270;12.470;2024-01-15T14:50:24;99604.50;;;-1.01;100.00
19236;BME280;9752;54.270;12.470;2024-01-15T14:55:26;99603.72;;;-1.10;100.00
19236;BME280;9752;54.270;12.470;2024-01-15T15:00:29;99615.41;;;-1.12;100.00
19236;BME280;9752;54.270;12.470;2024-01-15T15:05:30;99611.84;;;-1.14;100.00
19236;BME280;9752;54.270;12.470;2024-01-15T15:10:32;99614.81;;;-1.10;100.00
19236;BME280;9752;54.270;12.470;2024-01-15T15:15:35;99633.44;;;-1.20;100.00
19236;BME280;9752;54.270;12.470;2024-01-15T15:20:37;99637.03;;;-1.17;100.00
19236;BME280;9752;54.270;12.470;2024-01-15T15:25:39;99651.81;;;-1.13;100.00
19236;BME280;9752;54.270;12.470;2024-01-15T15:30:44;99655.31;;;-1.22;100.00
19236;BME280;9752;54.270;12.470;2024-01-15T15:35:46;99666.81;;;-1.35;100.00
19236;BME280;9752;54.270;12.470;2024-01-15T15:40:48;99666.28;;;-1.42;100.00
19236;BME280;9752;54.270;12.470;2024-01-15T15:45:51;99673.97;;;-1.50;100.00
19236;BME280;9752;54.270;12.470;2024-01-15T15:50:53;99689.72;;;-1.54;100.00
19236;BME280;9752;54.270;12.470;2024-01-15T15:55:55;99695.63;;;-1.45;100.00
19236;BME280;9752;54.270;12.470;2024-01-15T16:00:58;99700.38;;;-1.40;100.00
19236;BME280;9752;54.270;12.470;2024-01-15T16:06:00;99707.59;;;-1.44;100.00
19236;BME280;9752;54.270;12.470;2024-01-15T16:11:02;99724.94;;;-1.40;100.00
19236;BME280;9752;54.270;12.470;2024-01-15T16:16:05;99735.34;;;-1.37;100.00
19236;BME280;9752;54.270;12.470;2024-01-15T16:21:07;99746.69;;;-1.33;100.00
19236;BME280;9752;54.270;12.470;2024-01-15T16:26:09;99750.28;;;-1.31;100.00
19236;BME280;9752;54.270;12.470;2024-01-15T16:31:12;99758.53;;;-1.34;100.00
19236;BME280;9752;54.270;12.470;2024-01-15T16:36:13;99765.88;;;-1.37;100.00
19236;BME280;9752;54.270;12.470;2024-01-15T16:41:15;99768.41;;;-1.37;100.00
19236;BME280;9752;54.270;12.470;2024-01-15T16:46:18;99768.38;;;-1.47;100.00
19236;BME280;9752;54.270;12.470;2024-01-15T16:51:20;99773.69;;;-1.44;100.00
19236;BME280;9752;54.270;12.470;2024-01-15T16:56:21;99791.06;;;-1.40;100.00
19236;BME280;9752;54.270;12.470;2024-01-15T17:01:24;99793.38;;;-1.33;100.00
19236;BME280;9752;54.270;12.470;2024-01-15T17:06:26;99800.28;;;-1.32;100.00
19236;BME280;9752;54.270;12.470;2024-01-15T17:11:28;99812.69;;;-1.35;100.00
19236;BME280;9752;54.270;12.470;2024-01-15T17:16:31;99832.00;;;-1.37;100.00
19236;BME280;9752;54.270;12.470;2024-01-15T17:21:32;99835.72;;;-1.33;100.00
19236;BME280;9752;54.270;12.470;2024-01-15T17:26:34;99841.31;;;-1.38;100.00
19236;BME280;9752;54.270;12.470;2024-01-15T17:31:37;99861.31;;;-1.32;100.00
19236;BME280;9752;54.270;12.470;2024-01-15T17:36:39;99863.13;;;-1.31;100.00
19236;BME280;9752;54.270;12.470;2024-01-15T17:41:40;99874.75;;;-1.24;100.00
19236;BME280;9752;54.270;12.470;2024-01-15T17:46:44;99874.34;;;-1.29;100.00
19236;BME280;9752;54.270;12.470;2024-01-15T17:51:46;99893.91;;;-1.28;100.00
19236;BME280;9752;54.270;12.470;2024-01-15T17:56:48;99889.31;;;-1.32;100.00
19236;BME280;9752;54.270;12.470;2024-01-15T18:01:51;99895.97;;;-1.24;100.00
19236;BME280;9752;54.270;12.470;2024-01-15T18:06:54;99912.75;;;-1.26;100.00
19236;BME280;9752;54.270;12.470;2024-01-15T18:11:56;99917.69;;;-1.27;100.00
19236;BME280;9752;54.270;12.470;2024-01-15T18:17:02;99919.09;;;-1.31;100.00
19236;BME280;9752;54.270;12.470;2024-01-15T18:22:04;99931.97;;;-1.38;100.00
19236;BME280;9752;54.270;12.470;2024-01-15T18:27:06;99929.59;;;-1.36;100.00
19236;BME280;9752;54.270;12.470;2024-01-15T18:32:10;99932.56;;;-1.41;100.00
19236;BME280;9752;54.270;12.470;2024-01-15T18:37:11;99931.69;;;-1.41;100.00
19236;BME280;9752;54.270;12.470;2024-01-15T18:42:13;99938.28;;;-1.43;100.00
19236;BME280;9752;54.270;12.470;2024-01-15T18:47:16;99946.84;;;-1.51;100.00
19236;BME280;9752;54.270;12.470;2024-01-15T18:52:17;99971.50;;;-1.50;100.00
19236;BME280;9752;54.270;12.470;2024-01-15T18:57:21;99987.84;;;-1.57;100.00
19236;BME280;9752;54.270;12.470;2024-01-15T19:02:24;99988.59;;;-1.58;100.00
19236;BME280;9752;54.270;12.470;2024-01-15T19:07:26;99991.59;;;-1.71;100.00
19236;BME280;9752;54.270;12.470;2024-01-15T19:12:28;100012.09;;;-1.69;100.00
19236;BME280;9752;54.270;12.470;2024-01-15T19:17:31;100003.44;;;-1.63;100.00
19236;BME280;9752;54.270;12.470;2024-01-15T19:22:32;100004.16;;;-1.64;100.00
19236;BME280;9752;54.270;12.470;2024-01-15T19:27:34;100016.13;;;-1.63;100.00
19236;BME280;9752;54.270;12.470;2024-01-15T19:32:39;100024.97;;;-1.59;100.00
19236;BME280;9752;54.270;12.470;2024-01-15T19:37:41;100034.53;;;-1.57;100.00
19236;BME280;9752;54.270;12.470;2024-01-15T19:42:42;100040.63;;;-1.54;100.00
19236;BME280;9752;54.270;12.470;2024-01-15T19:47:46;100055.00;;;-1.55;100.00
19236;BME280;9752;54.270;12.470;2024-01-15T19:52:48;100057.41;;;-1.57;100.00
19236;BME280;9752;54.270;12.470;2024-01-15T19:57:49;100072.34;;;-1.51;100.00
19236;BME280;9752;54.270;12.470;2024-01-15T20:02:52;100078.63;;;-1.47;100.00
19236;BME280;9752;54.270;12.470;2024-01-15T20:07:54;100081.03;;;-1.49;100.00
19236;BME280;9752;54.270;12.470;2024-01-15T20:12:56;100090.59;;;-1.46;100.00
19236;BME280;9752;54.270;12.470;2024-01-15T20:17:59;100094.81;;;-1.64;100.00
19236;BME280;9752;54.270;12.470;2024-01-15T20:23:00;100089.41;;;-1.67;100.00
19236;BME280;9752;54.270;12.470;2024-01-15T20:28:02;100097.66;;;-1.79;100.00
19236;BME280;9752;54.270;12.470;2024-01-15T20:33:07;100099.59;;;-1.76;100.00
19236;BME280;9752;54.270;12.470;2024-01-15T20:38:09;100095.88;;;-1.80;100.00
19236;BME280;9752;54.270;12.470;2024-01-15T20:43:11;100100.81;;;-1.81;100.00
19236;BME280;9752;54.270;12.470;2024-01-15T20:48:14;100101.81;;;-1.88;100.00
19236;BME280;9752;54.270;12.470;2024-01-15T20:53:15;100116.19;;;-1.88;100.00
19236;BME280;9752;54.270;12.470;2024-01-15T20:58:21;100110.38;;;-1.87;100.00
19236;BME280;9752;54.270;12.470;2024-01-15T21:03:24;100111.41;;;-1.85;100.00
19236;BME280;9752;54.270;12.470;2024-01-15T21:08:25;100123.53;;;-1.83;100.00
19236;BME280;9752;54.270;12.470;2024-01-15T21:13:29;100129.78;;;-1.88;100.00
19236;BME280;9752;54.270;12.470;2024-01-15T21:18:32;100121.72;;;-1.92;100.00
19236;BME280;9752;54.270;12.470;2024-01-15T21:23:33;100121.13;;;-1.99;100.00
19236;BME280;9752;54.270;12.470;2024-01-15T21:28:35;100130.53;;;-1.98;100.00
19236;BME280;9752;54.270;12.470;2024-01-15T21:33:38;100138.03;;;-1.99;100.00
19236;BME280;9752;54.270;12.470;2024-01-15T21:38:44;100151.03;;;-2.05;100.00
19236;BME280;9752;54.270;12.470;2024-01-15T21:43:46;100146.97;;;-2.11;100.00
19236;BME280;9752;54.270;12.470;2024-01-15T21:48:49;100162.94;;;-2.21;100.00
19236;BME280;9752;54.270;12.470;2024-01-15T21:53:51;100179.66;;;-2.23;100.00
19236;BME280;9752;54.270;12.470;2024-01-15T21:58:52;100183.25;;;-2.21;100.00
19236;BME280;9752;54.270;12.470;2024-01-15T22:03:56;100185.97;;;-2.20;100.00
19236;BME280;9752;54.270;12.470;2024-01-15T22:08:57;100184.31;;;-2.19;100.00
19236;BME280;9752;54.270;12.470;2024-01-15T22:13:59;100199.41;;;-2.21;100.00
19236;BME280;9752;54.270;12.470;2024-01-15T22:19:02;100199.03;;;-2.41;100.00
19236;BME280;9752;54.270;12.470;2024-01-15T22:24:04;100211.81;;;-2.57;100.00
19236;BME280;9752;54.270;12.470;2024-01-15T22:29:06;100224.97;;;-2.52;100.00
19236;BME280;9752;54.270;12.470;2024-01-15T22:34:10;100222.59;;;-2.51;100.00
19236;BME280;9752;54.270;12.470;2024-01-15T22:39:11;100229.13;;;-2.62;100.00
19236;BME280;9752;54.270;12.470;2024-01-15T22:44:14;100232.56;;;-2.61;100.00
19236;BME280;9752;54.270;12.470;2024-01-15T22:49:17;100239.75;;;-2.57;100.00
19236;BME280;9752;54.270;12.470;2024-01-15T22:54:18;100251.56;;;-2.49;100.00
19236;BME280;9752;54.270;12.470;2024-01-15T22:59:20;100248.31;;;-2.39;100.00
19236;BME280;9752;54.270;12.470;2024-01-15T23:04:23;100257.22;;;-2.27;100.00
19236;BME280;9752;54.270;12.470;2024-01-15T23:09:25;100253.34;;;-2.23;100.00
19236;BME280;9752;54.270;12.470;2024-01-15T23:14:26;100256.00;;;-2.30;100.00
19236;BME280;9752;54.270;12.470;2024-01-15T23:19:29;100256.69;;;-2.40;100.00
19236;BME280;9752;54.270;12.470;2024-01-15T23:24:31;100268.34;;;-2.42;100.00
19236;BME280;9752;54.270;12.470;2024-01-15T23:29:32;100274.56;;;-2.56;100.00
19236;BME280;9752;54.270;12.470;2024-01-15T23:34:35;100278.94;;;-2.71;100.00
19236;BME280;9752;54.270;12.470;2024-01-15T23:39:37;100289.34;;;-2.77;100.00
19236;BME280;9752;54.270;12.470;2024-01-15T23:44:39;100294.09;;;-2.80;100.00
19236;BME280;9752;54.270;12.470;2024-01-15T23:49:42;100302.31;;;-2.98;100.00
19236;BME280;9752;54.270;12.470;2024-01-15T23:54:43;100303.31;;;-3.05;100.00
19236;BME280;9752;54.270;12.470;2024-01-15T23:59:45;100309.56;;;-3.26;100.00
